Time;durP1;ratioP1;P1;durP2;ratioP2;P2;SDS_P1;SDS_P2;PMS_P1;PMS_P2;Temp;Humidity;BMP_temperature;BMP_pressure;BME280_temperature;BME280_humidity;BME280_pressure;Samples;Min_cycle;Max_cycle;Signal;HPM_P1;HPM_P2
2022/09/27 00:02:21;;;;;;;2.88;0.88;;;10.10;99.90;;;;;;5073545;28;20440;-65
2022/09/27 00:04:46;;;;;;;3.95;0.70;;;10.10;99.90;;;;;;5073444;28;20062;-66
2022/09/27 00:07:12;;;;;;;3.35;1.02;;;10.00;99.90;;;;;;5072163;28;20051;-65
2022/09/27 00:09:38;;;;;;;5.22;0.90;;;10.00;99.90;;;;;;5073241;28;20088;-66
2022/09/27 00:12:04;;;;;;;3.08;0.88;;;10.00;99.90;;;;;;5072296;28;20064;-65
2022/09/27 00:14:29;;;;;;;5.38;0.80;;;9.90;99.90;;;;;;5073088;28;20114;-65
2022/09/27 00:16:55;;;;;;;3.08;0.75;;;9.90;99.90;;;;;;5073200;28;20047;-65
2022/09/27 00:19:22;;;;;;;3.67;1.00;;;9.80;99.90;;;;;;5073332;28;20051;-65
2022/09/27 00:21:49;;;;;;;2.25;0.70;;;9.80;99.90;;;;;;5073362;28;20414;-67
2022/09/27 00:24:17;;;;;;;1.83;0.80;;;9.80;99.90;;;;;;5072863;28;20454;-66
2022/09/27 00:26:45;;;;;;;4.00;1.60;;;9.70;99.90;;;;;;5073775;28;20443;-67
2022/09/27 00:29:11;;;;;;;2.40;0.80;;;9.70;99.90;;;;;;5073111;28;20049;-65
2022/09/27 00:31:37;;;;;;;3.25;1.00;;;9.70;99.90;;;;;;5073251;28;20378;-65
2022/09/27 00:34:04;;;;;;;3.28;0.93;;;9.60;99.90;;;;;;5074003;28;20097;-65
2022/09/27 00:36:30;;;;;;;3.55;0.77;;;9.60;99.90;;;;;;5073151;28;20040;-65
2022/09/27 00:39:00;;;;;;;5.50;0.93;;;9.60;99.90;;;;;;5073077;28;20040;-65
2022/09/27 00:41:31;;;;;;;2.92;1.10;;;9.60;99.90;;;;;;5073097;28;20056;-65
2022/09/27 00:44:00;;;;;;;3.80;1.00;;;9.50;99.90;;;;;;5073192;28;20127;-66
2022/09/27 00:46:37;;;;;;;4.07;0.80;;;9.50;99.90;;;;;;5073322;28;20358;-65
2022/09/27 00:49:15;;;;;;;6.45;1.52;;;9.40;99.90;;;;;;5073117;28;20128;-64
2022/09/27 00:51:43;;;;;;;5.72;1.00;;;9.40;99.90;;;;;;5073082;28;20088;-65
2022/09/27 00:54:11;;;;;;;2.25;0.80;;;9.40;99.90;;;;;;5073741;28;20052;-65
2022/09/27 00:56:38;;;;;;;4.50;0.90;;;9.40;99.90;;;;;;5072720;28;20576;-65
2022/09/27 00:59:21;;;;;;;2.17;0.60;;;9.40;99.90;;;;;;5072793;28;20045;-65
2022/09/27 01:01:49;;;;;;;1.98;0.70;;;9.30;99.90;;;;;;5072764;28;20053;-65
2022/09/27 01:04:22;;;;;;;2.90;1.20;;;9.40;99.90;;;;;;5073437;28;20167;-65
2022/09/27 01:06:48;;;;;;;4.60;0.75;;;9.40;99.90;;;;;;5073488;28;20052;-65
2022/09/27 01:09:15;;;;;;;1.30;0.60;;;9.40;99.90;;;;;;5071546;28;20048;-65
2022/09/27 01:11:41;;;;;;;2.80;0.57;;;9.40;99.90;;;;;;5072897;28;20057;-65
2022/09/27 01:14:31;;;;;;;2.00;0.60;;;9.40;99.90;;;;;;5072825;28;20051;-65
2022/09/27 01:17:06;;;;;;;3.65;0.63;;;9.40;99.90;;;;;;5072406;28;20554;-65
2022/09/27 01:19:53;;;;;;;1.20;0.60;;;9.30;99.90;;;;;;5072809;28;20486;-65
2022/09/27 01:22:28;;;;;;;1.92;0.60;;;9.30;99.90;;;;;;5073349;28;20055;-66
2022/09/27 01:25:22;;;;;;;1.20;0.70;;;9.30;99.90;;;;;;5073263;28;20044;-66
2022/09/27 01:28:20;;;;;;;3.25;0.70;;;9.30;99.90;;;;;;5076755;28;20382;-65
2022/09/27 01:31:15;;;;;;;2.53;0.70;;;9.30;99.90;;;;;;5076296;28;20037;-65
2022/09/27 01:34:02;;;;;;;4.70;0.68;;;9.30;99.90;;;;;;5076343;28;20222;-65
2022/09/27 01:36:42;;;;;;;3.10;0.60;;;9.30;99.90;;;;;;5077033;28;20421;-65
2022/09/27 01:39:32;;;;;;;1.40;0.68;;;9.30;99.90;;;;;;5076984;28;20071;-65
2022/09/27 01:42:22;;;;;;;1.92;0.50;;;9.30;99.90;;;;;;5076801;28;20044;-65
2022/09/27 01:44:56;;;;;;;1.85;0.80;;;9.30;99.90;;;;;;5076403;28;20070;-65
2022/09/27 01:47:27;;;;;;;1.67;0.60;;;9.30;99.90;;;;;;5076045;28;20485;-65
2022/09/27 01:50:07;;;;;;;1.38;0.50;;;9.30;99.90;;;;;;5076566;28;20127;-66
2022/09/27 01:52:40;;;;;;;3.22;0.70;;;9.20;99.90;;;;;;5076299;28;20057;-66
2022/09/27 01:55:11;;;;;;;1.30;0.60;;;9.20;99.90;;;;;;5076444;28;20048;-65
2022/09/27 01:57:39;;;;;;;3.10;0.70;;;9.20;99.90;;;;;;5076102;28;20470;-65
2022/09/27 02:00:09;;;;;;;1.73;0.45;;;9.20;99.90;;;;;;5076298;28;20048;-65
2022/09/27 02:02:41;;;;;;;1.58;0.50;;;9.10;99.90;;;;;;5075779;28;20127;-66
2022/09/27 02:05:10;;;;;;;1.30;0.60;;;9.10;99.90;;;;;;5076610;28;20045;-66
2022/09/27 02:07:55;;;;;;;1.50;0.60;;;9.10;99.90;;;;;;5076298;28;20055;-66
2022/09/27 02:10:30;;;;;;;2.97;0.65;;;9.10;99.90;;;;;;5076527;28;20064;-67
2022/09/27 02:13:15;;;;;;;3.25;0.68;;;9.20;99.90;;;;;;5076428;28;20059;-65
2022/09/27 02:16:16;;;;;;;1.48;0.50;;;9.10;99.90;;;;;;5075530;28;20568;-65
2022/09/27 02:19:11;;;;;;;4.38;0.90;;;9.10;99.90;;;;;;5075949;28;20040;-65
2022/09/27 02:21:49;;;;;;;1.35;0.60;;;9.10;99.90;;;;;;5075995;28;20456;-66
2022/09/27 02:24:23;;;;;;;2.00;0.60;;;9.10;99.90;;;;;;5074940;28;20045;-65
2022/09/27 02:27:02;;;;;;;0.73;0.40;;;9.20;99.90;;;;;;5074239;28;20047;-65
2022/09/27 02:29:36;;;;;;;2.75;0.50;;;9.20;99.90;;;;;;5075822;28;20037;-65
2022/09/27 02:32:02;;;;;;;2.65;0.60;;;9.20;99.90;;;;;;5075154;28;20481;-64
2022/09/27 02:34:32;;;;;;;1.42;0.50;;;9.20;99.90;;;;;;5074101;28;20041;-65
2022/09/27 02:36:58;;;;;;;1.10;0.60;;;9.20;99.90;;;;;;5057326;28;20131;-66
2022/09/27 02:39:24;;;;;;;3.30;0.60;;;9.40;99.90;;;;;;5074754;28;20053;-65
2022/09/27 02:41:50;;;;;;;2.20;0.60;;;9.20;99.90;;;;;;5075016;28;20048;-65
2022/09/27 02:44:17;;;;;;;2.08;0.50;;;9.20;99.90;;;;;;5074985;28;20044;-65
2022/09/27 02:47:15;;;;;;;2.75;0.70;;;9.30;99.90;;;;;;5075430;28;20075;-65
2022/09/27 02:49:40;;;;;;;3.28;0.60;;;9.30;99.90;;;;;;5074596;28;20454;-65
2022/09/27 02:52:21;;;;;;;2.28;0.50;;;9.30;99.90;;;;;;5074787;28;20131;-65
2022/09/27 02:55:10;;;;;;;2.92;0.70;;;9.30;99.90;;;;;;5075290;28;20078;-65
2022/09/27 02:57:45;;;;;;;4.15;0.60;;;9.30;99.90;;;;;;5075182;28;20044;-65
2022/09/27 03:00:18;;;;;;;3.08;0.60;;;9.20;99.90;;;;;;5074549;28;20237;-65
2022/09/27 03:03:16;;;;;;;2.90;0.60;;;9.20;99.90;;;;;;5075495;28;20052;-65
2022/09/27 03:06:01;;;;;;;2.05;0.43;;;9.20;99.90;;;;;;5072067;28;20054;-65
2022/09/27 03:08:27;;;;;;;1.88;0.65;;;9.20;99.90;;;;;;5075206;28;20080;-65
2022/09/27 03:10:53;;;;;;;3.70;1.33;;;9.20;99.90;;;;;;5074778;28;20455;-65
2022/09/27 03:13:18;;;;;;;1.38;0.40;;;9.30;99.90;;;;;;5074884;28;20131;-65
2022/09/27 03:15:44;;;;;;;3.20;0.68;;;9.20;99.90;;;;;;5074893;28;20107;-66
2022/09/27 03:18:10;;;;;;;1.67;0.60;;;9.20;99.90;;;;;;5074199;28;20047;-64
2022/09/27 03:20:35;;;;;;;1.92;0.50;;;9.20;99.90;;;;;;5074187;28;20040;-65
2022/09/27 03:23:01;;;;;;;2.17;0.60;;;9.20;99.90;;;;;;5072951;28;20059;-65
2022/09/27 03:25:27;;;;;;;0.73;0.50;;;9.10;99.90;;;;;;5073931;28;20127;-65
2022/09/27 03:27:53;;;;;;;2.60;0.77;;;9.10;99.90;;;;;;5073809;28;20082;-65
2022/09/27 03:30:19;;;;;;;1.13;0.40;;;9.10;99.90;;;;;;5056864;28;20048;-65
2022/09/27 03:32:45;;;;;;;2.05;0.40;;;9.00;99.90;;;;;;5073814;28;20120;-65
2022/09/27 03:35:12;;;;;;;1.13;0.40;;;9.00;99.90;;;;;;5073969;28;20071;-65
2022/09/27 03:37:39;;;;;;;1.83;0.50;;;9.00;99.90;;;;;;5073869;28;20044;-65
2022/09/27 03:40:06;;;;;;;1.73;0.50;;;9.00;99.90;;;;;;5073942;28;20051;-65
2022/09/27 03:42:32;;;;;;;2.38;0.50;;;9.00;99.90;;;;;;5074354;28;20041;-65
2022/09/27 03:44:58;;;;;;;1.55;0.40;;;9.00;99.90;;;;;;5073812;28;20041;-66
2022/09/27 03:47:23;;;;;;;1.08;0.40;;;9.00;99.90;;;;;;5072511;28;20060;-66
2022/09/27 03:49:49;;;;;;;1.77;0.57;;;9.00;99.90;;;;;;5073694;28;20052;-65
2022/09/27 03:52:17;;;;;;;1.08;0.40;;;9.00;99.90;;;;;;5073940;28;20044;-65
2022/09/27 03:54:43;;;;;;;2.38;0.50;;;9.00;99.90;;;;;;5073582;28;20098;-66
2022/09/27 03:57:09;;;;;;;1.77;0.52;;;9.10;99.90;;;;;;5073545;28;20084;-66
2022/09/27 03:59:35;;;;;;;2.42;0.52;;;9.10;99.90;;;;;;5074022;28;20086;-66
2022/09/27 04:02:00;;;;;;;1.05;0.50;;;9.00;99.90;;;;;;5073510;28;20477;-66
2022/09/27 04:04:26;;;;;;;2.50;0.45;;;9.00;99.90;;;;;;5074051;28;20398;-66
2022/09/27 04:06:51;;;;;;;1.52;0.55;;;9.10;99.90;;;;;;5074264;28;20389;-66
2022/09/27 04:09:17;;;;;;;1.85;0.40;;;8.90;99.90;;;;;;5074052;28;20036;-66
2022/09/27 04:11:43;;;;;;;1.55;0.40;;;8.80;99.90;;;;;;5073517;28;20044;-64
2022/09/27 04:14:11;;;;;;;1.88;0.50;;;8.80;99.90;;;;;;5073362;28;20052;-65
2022/09/27 04:16:38;;;;;;;1.30;0.43;;;8.80;99.90;;;;;;5073362;28;20048;-65
2022/09/27 04:19:03;;;;;;;1.60;0.47;;;8.80;99.90;;;;;;5073239;28;20045;-65
2022/09/27 04:21:29;;;;;;;0.93;0.40;;;8.80;99.90;;;;;;5073265;28;20127;-65
2022/09/27 04:23:54;;;;;;;2.33;0.35;;;8.90;99.90;;;;;;5072130;28;20084;-65
2022/09/27 04:26:21;;;;;;;1.50;0.43;;;8.80;99.90;;;;;;5073667;28;20044;-65
2022/09/27 04:28:46;;;;;;;1.88;0.40;;;8.80;99.90;;;;;;5073183;28;20044;-66
2022/09/27 04:31:12;;;;;;;0.93;0.40;;;8.80;99.90;;;;;;5074013;28;20382;-66
2022/09/27 04:33:38;;;;;;;2.50;0.50;;;8.80;99.90;;;;;;5072893;28;20041;-66
2022/09/27 04:38:48;;;;;;;2.08;0.50;;;8.80;99.90;;;;;;5073969;28;20420;-66
2022/09/27 04:41:14;;;;;;;2.05;0.50;;;8.80;99.90;;;;;;5073139;28;20044;-66
2022/09/27 04:43:40;;;;;;;1.15;0.50;;;8.80;99.90;;;;;;5072168;28;20045;-66
2022/09/27 04:46:06;;;;;;;1.42;0.45;;;8.80;99.90;;;;;;5073109;28;20082;-66
2022/09/27 04:48:31;;;;;;;1.40;0.60;;;8.70;99.90;;;;;;5073264;28;20037;-68
2022/09/27 04:50:59;;;;;;;1.67;0.30;;;8.70;99.90;;;;;;5073089;28;20558;-66
2022/09/27 04:53:25;;;;;;;2.58;0.68;;;8.80;99.90;;;;;;5073077;28;20045;-66
2022/09/27 04:55:53;;;;;;;1.58;0.50;;;8.70;99.90;;;;;;5073041;28;20067;-66
2022/09/27 04:58:20;;;;;;;1.52;0.47;;;8.70;99.90;;;;;;5073082;28;20121;-66
2022/09/27 05:00:46;;;;;;;1.50;0.50;;;8.70;99.90;;;;;;5073679;28;20048;-66
2022/09/27 05:03:12;;;;;;;2.42;0.55;;;8.60;99.90;;;;;;5076896;28;20057;-67
2022/09/27 05:05:38;;;;;;;1.63;0.50;;;8.60;99.90;;;;;;5076882;28;20109;-66
2022/09/27 05:08:03;;;;;;;1.88;0.55;;;8.60;99.90;;;;;;5076769;28;20080;-65
2022/09/27 05:10:29;;;;;;;1.55;0.95;;;8.60;99.90;;;;;;5076486;28;20079;-65
2022/09/27 05:12:55;;;;;;;3.40;0.65;;;8.60;99.90;;;;;;5077229;28;20163;-65
2022/09/27 05:15:21;;;;;;;1.80;0.50;;;8.60;99.90;;;;;;5075907;28;20075;-66
2022/09/27 05:17:49;;;;;;;1.25;0.50;;;8.60;99.90;;;;;;5076531;28;20089;-66
2022/09/27 05:20:15;;;;;;;1.70;0.55;;;8.60;99.90;;;;;;5075323;28;20516;-66
2022/09/27 05:22:40;;;;;;;1.40;0.50;;;8.60;99.90;;;;;;5076505;28;20045;-66
2022/09/27 05:25:06;;;;;;;1.63;0.50;;;8.70;99.90;;;;;;5075705;28;20370;-66
2022/09/27 05:27:32;;;;;;;1.10;0.50;;;8.60;99.90;;;;;;5076421;28;20086;-66
2022/09/27 05:30:00;;;;;;;1.60;0.40;;;8.60;99.90;;;;;;5076273;28;20079;-65
2022/09/27 05:32:27;;;;;;;1.75;0.50;;;8.50;99.90;;;;;;5076426;28;20400;-65
2022/09/27 05:34:53;;;;;;;2.55;0.50;;;8.60;99.90;;;;;;5076027;28;20082;-65
2022/09/27 05:37:18;;;;;;;2.92;0.52;;;8.60;99.90;;;;;;5075615;28;20481;-65
2022/09/27 05:39:45;;;;;;;1.15;0.40;;;8.60;99.90;;;;;;5076009;28;20473;-65
2022/09/27 05:42:14;;;;;;;1.67;0.52;;;8.60;99.90;;;;;;5076066;28;20045;-65
2022/09/27 05:44:40;;;;;;;0.75;0.30;;;8.50;99.90;;;;;;5075960;28;20047;-66
2022/09/27 05:47:06;;;;;;;1.35;0.50;;;8.60;99.90;;;;;;5075994;28;20044;-65
2022/09/27 05:49:33;;;;;;;1.05;0.38;;;8.60;99.90;;;;;;5075665;28;20489;-65
2022/09/27 05:51:59;;;;;;;1.02;0.40;;;8.60;99.90;;;;;;5075794;28;20048;-65
2022/09/27 05:54:25;;;;;;;1.90;0.40;;;8.60;99.90;;;;;;5076530;28;20048;-65
2022/09/27 05:56:57;;;;;;;3.15;0.60;;;8.60;99.90;;;;;;5075062;28;20095;-65
2022/09/27 05:59:24;;;;;;;1.38;0.50;;;8.60;99.90;;;;;;5074446;28;20397;-65
2022/09/27 06:01:50;;;;;;;1.17;0.40;;;8.70;99.90;;;;;;5076472;28;20052;-66
2022/09/27 06:04:16;;;;;;;1.35;0.47;;;8.70;99.90;;;;;;5075723;28;20040;-66
2022/09/27 06:06:43;;;;;;;2.92;0.50;;;8.80;99.90;;;;;;5075660;28;20119;-66
2022/09/27 06:09:10;;;;;;;0.70;0.40;;;8.70;99.90;;;;;;5075994;28;20051;-65
2022/09/27 06:11:36;;;;;;;0.88;0.40;;;8.70;99.90;;;;;;5075301;28;20402;-65
2022/09/27 06:14:01;;;;;;;0.70;0.40;;;8.80;99.90;;;;;;5074917;28;20056;-65
2022/09/27 06:16:27;;;;;;;1.55;0.50;;;8.70;99.90;;;;;;5076030;28;20505;-65
2022/09/27 06:18:52;;;;;;;0.65;0.32;;;8.70;99.90;;;;;;5075736;28;20421;-65
2022/09/27 06:21:19;;;;;;;1.40;0.60;;;8.80;99.90;;;;;;5075424;28;20389;-61
2022/09/27 06:23:44;;;;;;;3.33;0.50;;;8.70;99.90;;;;;;5075382;28;20386;-61
2022/09/27 06:26:11;;;;;;;0.85;0.40;;;8.80;99.90;;;;;;5075757;28;20051;-61
2022/09/27 06:28:36;;;;;;;2.35;0.40;;;8.80;99.90;;;;;;5075731;28;20436;-62
2022/09/27 06:31:05;;;;;;;1.52;0.57;;;8.80;99.90;;;;;;5075213;28;20045;-62
2022/09/27 06:33:32;;;;;;;1.92;0.50;;;8.80;99.90;;;;;;5075022;28;20124;-62
2022/09/27 06:36:03;;;;;;;2.25;0.52;;;8.80;99.90;;;;;;5075007;28;20109;-61
2022/09/27 06:38:29;;;;;;;1.58;0.68;;;8.80;99.90;;;;;;5075001;28;20105;-61
2022/09/27 06:40:56;;;;;;;2.15;0.60;;;8.80;99.90;;;;;;5075004;28;20480;-61
2022/09/27 06:43:22;;;;;;;1.17;0.50;;;8.80;99.90;;;;;;5074980;28;20056;-62
2022/09/27 06:45:49;;;;;;;1.08;0.50;;;8.80;99.90;;;;;;5073977;28;20048;-61
2022/09/27 06:48:16;;;;;;;1.10;0.50;;;8.80;99.90;;;;;;5074921;28;20044;-62
2022/09/27 06:50:43;;;;;;;1.55;0.50;;;8.80;99.90;;;;;;5073737;28;20165;-62
2022/09/27 06:53:11;;;;;;;2.13;0.60;;;8.80;99.90;;;;;;5074612;28;20402;-62
2022/09/27 06:55:37;;;;;;;3.25;0.70;;;8.90;99.90;;;;;;5074752;28;20048;-63
2022/09/27 07:00:50;;;;;;;2.47;0.63;;;8.90;99.90;;;;;;5075255;28;20107;-62
2022/09/27 07:03:16;;;;;;;2.53;0.82;;;8.90;99.90;;;;;;5074786;28;20405;-62
2022/09/27 07:05:42;;;;;;;2.75;1.05;;;8.90;99.90;;;;;;5074696;28;20478;-62
2022/09/27 07:08:11;;;;;;;2.97;0.60;;;8.90;99.90;;;;;;5075228;28;20170;-62
2022/09/27 07:10:38;;;;;;;2.05;0.60;;;8.90;99.90;;;;;;5075198;28;20056;-62
2022/09/27 07:13:08;;;;;;;2.13;0.65;;;8.90;99.90;;;;;;5074117;28;20052;-63
2022/09/27 07:15:35;;;;;;;1.02;0.50;;;8.90;99.90;;;;;;5073825;28;20509;-62
2022/09/27 07:18:03;;;;;;;2.15;0.60;;;8.90;99.90;;;;;;5074040;28;20186;-62
2022/09/27 07:20:30;;;;;;;2.00;0.60;;;9.00;99.90;;;;;;5074157;28;20105;-63
2022/09/27 07:22:56;;;;;;;0.77;0.40;;;9.00;99.90;;;;;;5074595;28;20055;-63
2022/09/27 07:25:22;;;;;;;2.45;0.57;;;9.20;99.90;;;;;;5073800;28;20556;-62
2022/09/27 07:27:48;;;;;;;1.02;0.50;;;9.30;99.90;;;;;;5073966;28;20141;-63
2022/09/27 07:30:15;;;;;;;1.30;0.45;;;9.50;99.90;;;;;;5073532;28;20076;-62
2022/09/27 07:32:41;;;;;;;2.00;0.57;;;9.70;99.90;;;;;;5074018;28;20054;-62
2022/09/27 07:35:07;;;;;;;3.65;0.73;;;9.80;99.90;;;;;;5073756;28;20120;-62
2022/09/27 07:37:35;;;;;;;1.50;0.50;;;9.80;99.90;;;;;;5074037;28;20036;-62
2022/09/27 07:40:02;;;;;;;2.88;0.60;;;9.90;99.90;;;;;;5073873;28;20052;-62
2022/09/27 07:42:28;;;;;;;1.00;0.50;;;9.90;99.90;;;;;;5073778;28;20040;-62
2022/09/27 07:44:54;;;;;;;2.08;0.55;;;10.00;99.90;;;;;;5073708;28;20037;-62
2022/09/27 07:47:23;;;;;;;1.67;0.68;;;10.00;99.90;;;;;;5074515;28;20094;-61
2022/09/27 07:49:50;;;;;;;1.10;0.50;;;9.90;99.90;;;;;;5073745;28;20126;-61
2022/09/27 07:52:16;;;;;;;1.73;0.50;;;10.00;99.90;;;;;;5073633;28;20049;-61
2022/09/27 07:54:42;;;;;;;3.95;0.60;;;10.10;99.90;;;;;;5073568;28;20047;-61
2022/09/27 07:57:08;;;;;;;2.25;0.93;;;10.30;99.90;;;;;;5073989;28;20363;-61
2022/09/27 07:59:33;;;;;;;3.28;0.70;;;10.50;99.90;;;;;;5073418;28;20131;-61
2022/09/27 08:01:59;;;;;;;0.90;0.50;;;10.60;99.90;;;;;;5073965;28;20492;-62
2022/09/27 08:04:25;;;;;;;2.88;0.60;;;10.60;99.90;;;;;;5073806;28;20131;-62
2022/09/27 08:06:50;;;;;;;1.85;0.50;;;10.50;99.90;;;;;;5073677;28;20419;-62
2022/09/27 08:09:16;;;;;;;1.13;0.60;;;10.30;99.90;;;;;;5073431;28;20569;-62
2022/09/27 08:11:43;;;;;;;3.42;0.50;;;10.20;99.90;;;;;;5073155;28;20056;-61
2022/09/27 08:14:09;;;;;;;1.92;0.70;;;10.10;99.90;;;;;;5073852;28;20055;-61
2022/09/27 08:16:35;;;;;;;1.90;0.50;;;10.00;99.90;;;;;;5073946;28;20052;-61
2022/09/27 08:19:01;;;;;;;2.80;0.50;;;10.00;99.90;;;;;;5055325;28;20470;-62
2022/09/27 08:21:26;;;;;;;1.65;0.50;;;10.00;99.90;;;;;;5074098;28;20086;-61
2022/09/27 08:23:52;;;;;;;1.75;1.15;;;10.00;99.90;;;;;;5073193;28;20493;-61
2022/09/27 08:26:18;;;;;;;1.63;1.17;;;10.20;99.90;;;;;;5073559;28;20068;-64
2022/09/27 08:28:47;;;;;;;2.53;0.50;;;10.20;99.90;;;;;;5072926;28;20044;-62
2022/09/27 08:31:12;;;;;;;1.02;0.50;;;10.20;99.90;;;;;;5073089;28;20058;-62
2022/09/27 08:33:38;;;;;;;3.17;0.68;;;10.10;99.90;;;;;;5073172;28;20443;-62
2022/09/27 08:36:09;;;;;;;2.58;0.60;;;10.40;99.90;;;;;;5072370;28;20079;-63
2022/09/27 08:38:35;;;;;;;1.73;0.60;;;10.70;99.90;;;;;;5073843;28;20102;-62
2022/09/27 08:41:11;;;;;;;1.65;0.80;;;10.90;99.90;;;;;;5073063;28;20446;-62
2022/09/27 08:43:51;;;;;;;;;;;11.00;99.90;;;;;;5073548;28;20127;-62
2022/09/27 08:46:26;;;;;;;2.38;0.60;;;11.20;99.90;;;;;;5073549;28;19921;-61
2022/09/27 08:49:03;;;;;;;1.65;0.60;;;11.30;99.90;;;;;;5072959;28;20496;-62
2022/09/27 08:51:30;;;;;;;3.78;0.70;;;11.50;99.90;;;;;;5073041;28;20152;-62
2022/09/27 08:54:10;;;;;;;2.08;0.57;;;11.60;99.90;;;;;;5072896;28;20089;-63
2022/09/27 08:56:36;;;;;;;2.13;0.57;;;11.70;99.90;;;;;;5072882;28;20075;-62
2022/09/27 08:59:13;;;;;;;3.05;0.70;;;11.70;99.90;;;;;;5072707;28;20137;-62
2022/09/27 09:01:40;;;;;;;3.42;0.57;;;11.70;99.90;;;;;;5072000;28;20473;-62
2022/09/27 09:04:07;;;;;;;1.95;0.60;;;11.60;99.90;;;;;;5072871;28;20048;-62
2022/09/27 09:06:51;;;;;;;1.38;0.50;;;11.60;99.90;;;;;;5073317;28;20148;-62
2022/09/27 09:09:37;;;;;;;0.80;0.55;;;11.60;99.90;;;;;;5072885;28;20619;-62
2022/09/27 09:12:46;;;;;;;1.20;0.50;;;11.60;99.90;;;;;;5072810;28;20053;-62
2022/09/27 09:15:54;;;;;;;2.63;0.50;;;11.60;99.90;;;;;;5072945;28;20070;-61
2022/09/27 09:18:46;;;;;;;3.15;1.58;;;11.50;99.90;;;;;;5073132;28;20080;-61
2022/09/27 09:21:47;;;;;;;2.42;0.50;;;11.60;99.90;;;;;;5072768;28;20063;-61
2022/09/27 09:24:26;;;;;;;1.02;0.40;;;11.60;99.90;;;;;;5072700;28;20056;-62
2022/09/27 09:26:52;;;;;;;0.88;0.35;;;11.90;99.90;;;;;;5072868;28;20385;-62
2022/09/27 09:30:00;;;;;;;1.23;0.40;;;12.20;99.90;;;;;;5072419;28;20037;-61
2022/09/27 09:33:10;;;;;;;2.72;0.60;;;12.50;99.90;;;;;;5072542;28;20056;-61
2022/09/27 09:35:41;;;;;;;2.05;0.50;;;12.90;99.90;;;;;;5062098;28;20067;-61
2022/09/27 09:38:17;;;;;;;0.47;0.30;;;13.10;99.90;;;;;;5072957;28;20048;-61
2022/09/27 09:40:50;;;;;;;0.82;0.40;;;13.10;99.90;;;;;;5072510;28;20055;-62
2022/09/27 09:43:42;;;;;;;2.10;0.50;;;13.10;99.90;;;;;;5072459;28;20048;-62
2022/09/27 09:46:16;;;;;;;0.90;0.50;;;13.10;99.90;;;;;;5072777;28;20041;-62
2022/09/27 09:48:48;;;;;;;1.80;0.40;;;13.00;99.90;;;;;;5075932;28;20037;-61
2022/09/27 09:51:26;;;;;;;1.73;0.50;;;12.80;99.90;;;;;;5075983;28;20052;-62
2022/09/27 09:54:01;;;;;;;2.25;0.50;;;12.70;99.90;;;;;;5075218;28;20040;-61
2022/09/27 09:56:34;;;;;;;0.82;0.50;;;12.70;99.90;;;;;;5075186;28;20052;-62
2022/09/27 09:59:03;;;;;;;0.90;0.40;;;12.50;99.90;;;;;;5074901;28;20045;-62
2022/09/27 10:01:43;;;;;;;1.63;0.50;;;12.20;99.90;;;;;;5075666;28;20084;-62
2022/09/27 10:04:19;;;;;;;0.82;0.40;;;11.80;99.90;;;;;;5075452;28;20044;-61
2022/09/27 10:06:44;;;;;;;;;;;11.40;99.90;;;;;;5076093;28;20486;-61
2022/09/27 10:09:14;;;;;;;1.40;0.30;;;11.20;99.90;;;;;;5075683;28;19920;-61
2022/09/27 10:11:43;;;;;;;2.40;0.57;;;11.00;99.90;;;;;;5076206;28;20048;-62
2022/09/27 10:14:15;;;;;;;0.80;0.40;;;10.90;99.90;;;;;;5075563;28;20094;-62
2022/09/27 10:16:46;;;;;;;1.10;0.45;;;10.90;99.90;;;;;;5075672;28;20052;-62
2022/09/27 10:19:16;;;;;;;1.08;0.40;;;10.90;99.90;;;;;;5075989;28;20048;-62
2022/09/27 10:21:44;;;;;;;0.68;0.40;;;11.00;99.90;;;;;;5075117;28;20513;-62
2022/09/27 10:24:12;;;;;;;0.45;0.35;;;11.10;99.90;;;;;;5076011;28;20099;-62
2022/09/27 10:26:42;;;;;;;2.03;0.50;;;11.10;99.90;;;;;;5076083;28;20040;-61
2022/09/27 10:29:29;;;;;;;2.40;0.47;;;11.10;99.90;;;;;;5075340;28;20108;-61
2022/09/27 10:31:56;;;;;;;1.48;0.50;;;11.10;99.90;;;;;;5074550;28;20055;-61
2022/09/27 10:34:34;;;;;;;0.98;0.45;;;11.20;99.90;;;;;;5075180;28;20144;-61
2022/09/27 10:37:12;;;;;;;1.55;0.50;;;11.30;99.90;;;;;;5075119;28;20097;-61
2022/09/27 10:39:40;;;;;;;1.08;0.50;;;11.40;99.90;;;;;;5075037;28;20094;-60
2022/09/27 10:42:33;;;;;;;1.02;0.50;;;11.60;99.90;;;;;;5075072;28;20052;-61
2022/09/27 10:45:21;;;;;;;2.35;0.75;;;11.80;99.90;;;;;;5074940;28;20110;-61
2022/09/27 10:47:47;;;;;;;0.98;0.40;;;12.00;99.90;;;;;;5074973;28;20055;-61
2022/09/27 10:50:24;;;;;;;0.63;0.40;;;12.10;99.90;;;;;;5074800;28;20102;-61
2022/09/27 10:53:04;;;;;;;1.08;0.40;;;12.10;99.90;;;;;;5075386;28;20576;-61
2022/09/27 10:55:34;;;;;;;1.48;0.40;;;12.10;99.90;;;;;;5074477;28;20367;-61
2022/09/27 10:58:01;;;;;;;1.38;0.40;;;12.10;99.90;;;;;;5074057;28;20518;-61
2022/09/27 11:00:32;;;;;;;1.35;0.40;;;12.00;99.90;;;;;;5074277;28;20052;-61
2022/09/27 11:03:16;;;;;;;0.45;0.40;;;12.10;99.90;;;;;;5074570;28;20044;-61
2022/09/27 11:05:42;;;;;;;1.55;0.43;;;12.00;99.90;;;;;;5073924;28;20354;-61
2022/09/27 11:08:17;;;;;;;0.68;0.40;;;12.10;99.90;;;;;;5074553;28;20090;-62
2022/09/27 11:10:43;;;;;;;1.98;0.43;;;12.20;99.90;;;;;;5074090;28;20092;-61
2022/09/27 11:13:13;;;;;;;1.05;0.40;;;12.20;99.90;;;;;;5074324;28;20129;-61
2022/09/27 11:16:22;;;;;;;1.17;0.40;;;12.30;99.90;;;;;;5073900;28;20076;-62
2022/09/27 11:19:27;;;;;;;0.73;0.40;;;12.60;99.90;;;;;;5073952;28;20474;-62
2022/09/27 11:22:07;;;;;;;0.82;0.47;;;12.60;99.90;;;;;;5074685;28;20041;-61
2022/09/27 11:24:54;;;;;;;1.95;0.40;;;12.50;99.90;;;;;;5073518;28;20044;-60
2022/09/27 11:27:46;;;;;;;0.98;0.32;;;12.60;99.90;;;;;;5074621;28;20055;-61
2022/09/27 11:30:13;;;;;;;1.13;0.40;;;12.60;99.90;;;;;;5074485;28;20442;-63
2022/09/27 11:32:42;;;;;;;0.68;0.32;;;12.70;99.90;;;;;;5073957;28;20047;-62
2022/09/27 11:35:33;;;;;;;1.30;0.40;;;12.70;99.90;;;;;;5073929;28;20084;-62
2022/09/27 11:38:20;;;;;;;0.47;0.30;;;12.60;99.90;;;;;;5074294;28;20048;-62
2022/09/27 11:40:46;;;;;;;0.52;0.38;;;12.50;99.90;;;;;;5072615;28;20048;-63
2022/09/27 11:43:37;;;;;;;0.63;0.40;;;12.40;99.90;;;;;;5072873;28;20398;-62
2022/09/27 11:46:12;;;;;;;1.38;0.35;;;12.30;99.90;;;;;;5074567;28;20114;-62
2022/09/27 11:48:53;;;;;;;1.10;0.40;;;12.10;99.90;;;;;;5074296;28;20446;-62
2022/09/27 11:51:47;;;;;;;0.55;0.30;;;12.00;99.90;;;;;;5074006;28;20135;-63
2022/09/27 11:54:54;;;;;;;0.30;0.30;;;11.90;99.90;;;;;;5072665;28;20052;-63
2022/09/27 11:57:30;;;;;;;3.85;0.60;;;11.70;99.90;;;;;;5073507;28;20040;-62
2022/09/27 12:00:23;;;;;;;0.50;0.30;;;11.40;99.90;;;;;;5072580;28;20477;-62
2022/09/27 12:03:11;;;;;;;1.23;0.40;;;11.00;99.90;;;;;;5073268;28;20168;-61
2022/09/27 12:06:04;;;;;;;0.98;0.30;;;10.60;99.90;;;;;;5073219;28;20466;-61
2022/09/27 12:09:18;;;;;;;1.88;0.43;;;10.40;99.90;;;;;;5073733;28;20386;-62
2022/09/27 12:11:52;;;;;;;1.15;0.30;;;10.20;99.90;;;;;;5066988;28;20057;-60
2022/09/27 12:14:32;;;;;;;0.73;0.40;;;10.10;99.90;;;;;;5073517;28;20052;-60
2022/09/27 12:17:01;;;;;;;2.88;0.43;;;10.10;99.90;;;;;;5074196;28;20067;-61
2022/09/27 12:19:34;;;;;;;1.65;0.47;;;10.20;99.90;;;;;;5073736;28;20045;-62
2022/09/27 12:22:03;;;;;;;0.85;0.40;;;10.20;99.90;;;;;;5074044;28;20041;-61
2022/09/27 12:24:31;;;;;;;0.60;0.32;;;10.30;99.90;;;;;;5072244;28;20135;-60
2022/09/27 12:27:06;;;;;;;1.00;0.32;;;10.40;99.90;;;;;;5073837;28;20450;-61
2022/09/27 12:29:35;;;;;;;1.90;0.50;;;10.50;99.90;;;;;;5073758;28;20127;-60
2022/09/27 12:32:19;;;;;;;1.95;0.50;;;10.70;99.90;;;;;;5073264;28;20451;-61
2022/09/27 12:34:49;;;;;;;0.85;0.40;;;10.70;99.90;;;;;;5073514;28;20062;-61
2022/09/27 12:37:27;;;;;;;0.93;0.30;;;10.80;99.90;;;;;;5072996;28;20103;-61
2022/09/27 12:40:11;;;;;;;0.45;0.30;;;10.80;99.90;;;;;;5073558;28;20053;-61
2022/09/27 12:42:58;;;;;;;0.52;0.30;;;10.80;99.90;;;;;;5073472;28;20051;-61
2022/09/27 12:45:53;;;;;;;0.57;0.30;;;10.80;99.90;;;;;;5074061;28;20067;-60
2022/09/27 12:48:27;;;;;;;0.60;0.40;;;10.80;99.90;;;;;;5036020;28;20139;-61
2022/09/27 12:51:00;;;;;;;0.47;0.30;;;10.90;99.90;;;;;;5073327;28;20041;-61
2022/09/27 12:53:38;;;;;;;0.93;0.73;;;10.80;99.90;;;;;;5073653;28;20120;-61
2022/09/27 12:56:08;;;;;;;1.20;0.38;;;10.70;99.90;;;;;;5073318;28;20067;-61
2022/09/27 12:58:40;;;;;;;2.15;1.20;;;10.90;99.90;;;;;;5072891;28;20181;-61
2022/09/27 13:01:14;;;;;;;0.60;0.40;;;10.90;99.90;;;;;;5072901;28;20131;-61
2022/09/27 13:03:42;;;;;;;0.43;0.30;;;11.00;99.90;;;;;;5072961;28;20044;-60
2022/09/27 13:06:26;;;;;;;1.25;0.40;;;11.10;99.90;;;;;;5072648;28;20092;-61
2022/09/27 13:09:19;;;;;;;0.85;0.45;;;11.30;99.90;;;;;;5073369;28;20098;-60
2022/09/27 13:12:09;;;;;;;0.82;0.30;;;11.40;99.90;;;;;;5073593;28;20131;-61
2022/09/27 13:14:53;;;;;;;1.35;0.40;;;11.60;99.90;;;;;;5073084;28;20140;-61
2022/09/27 13:17:55;;;;;;;0.98;0.50;;;11.70;99.90;;;;;;5073150;28;20102;-61
2022/09/27 13:20:29;;;;;;;2.83;0.50;;;11.90;99.90;;;;;;5030565;28;20049;-61
2022/09/27 13:22:56;;;;;;;1.98;0.38;;;11.90;99.90;;;;;;5069697;28;20052;-62
2022/09/27 13:25:44;;;;;;;1.08;0.50;;;11.90;99.90;;;;;;5076529;28;20158;-62
2022/09/27 13:28:30;;;;;;;1.02;0.40;;;11.90;99.90;;;;;;5076389;28;20052;-62